»·PEaware :: AAL3103 KPHX-KASE

AAL3103 :: KPHX-KASE

FLIGHT INFORMATION

Flight Status: Arrived
Operator:
American Airlines
More flights by this operator :: More flights under this callsign
Pilot: Andrew C. (28419)
Aircraft: AIRBUS A319
(A319)
More flights by this aircraft type
Origin: KPHX Phoenix Sky Harbor Intl
United States
Destination: KASE Aspen-Pitkin Co/Sardy
United States
More flights between these airports :: More routes between these airports
Route: MRBIL1 YOOPR DVC LOYYD SKIER DBL
File this flight plan on PilotEdge
Remarks: RMK / SIMBRIEF
Altitude:
(Current/Filed)
39,000ft
Speed:
(Current/Filed)
439kts
Departed: 22-Oct-20 06:36 PM
Arrived: 22-Oct-20 07:50 PM
Distance/Time
Traveled:
427nm/1:14
Distance/Time
To Go:
Arrived

Flight Plot

Page will automatically refresh every two minutes.

Flight plan parsing failed; only flown route is shown


Map Options




Map Legend


Flown Route
Filed Route
Departure Airport
Arrival Airport
Navaid (VOR, NDB)
Fix

Horizontal Profiles

Position Reports

Time Latitude Longitude Heading Altitude Ground
Speed
22-Oct-20 18:06 33.437202 -111.997330 90 1144ft 0kts
22-Oct-20 18:07 33.437202 -111.997330 90 1144ft 0kts
22-Oct-20 18:08 33.437202 -111.997330 90 1144ft 0kts
22-Oct-20 18:09 33.437202 -111.997330 90 1144ft 0kts
22-Oct-20 18:10 33.437202 -111.997330 90 1144ft 0kts
22-Oct-20 18:11 33.437202 -111.997330 90 1144ft 0kts
22-Oct-20 18:12 33.437202 -111.997330 90 1144ft 0kts
22-Oct-20 18:13 33.437202 -111.997330 90 1144ft 0kts
22-Oct-20 18:14 33.437202 -111.997330 90 1144ft 0kts
22-Oct-20 18:15 33.437202 -111.997330 90 1144ft 0kts
22-Oct-20 18:16 33.437202 -111.997330 90 1144ft 0kts
22-Oct-20 18:17 33.437202 -111.997330 90 1144ft 0kts
22-Oct-20 18:18 33.437202 -111.997330 90 1144ft 0kts
22-Oct-20 18:19 33.437202 -111.997330 90 1144ft 0kts
22-Oct-20 18:20 33.437202 -111.997330 90 1144ft 0kts
22-Oct-20 18:21 33.437202 -111.997330 90 1144ft 0kts
22-Oct-20 18:22 33.437202 -111.997330 90 1144ft 0kts
22-Oct-20 18:23 33.437202 -111.997330 90 1144ft 0kts
22-Oct-20 18:24 33.437202 -111.997540 89 1144ft 2kts
22-Oct-20 18:25 33.437004 -111.997829 359 1144ft 0kts
22-Oct-20 18:26 33.437005 -111.997829 359 1144ft 0kts
22-Oct-20 18:27 33.437005 -111.997829 359 1144ft 0kts
22-Oct-20 18:28 33.437005 -111.997829 359 1144ft 0kts
22-Oct-20 18:29 33.439721 -111.999685 268 1144ft 21kts
22-Oct-20 18:30 33.439768 -112.008974 267 1144ft 31kts
22-Oct-20 18:31 33.439756 -112.019676 269 1144ft 37kts
22-Oct-20 18:32 33.439757 -112.029238 270 1144ft 15kts
22-Oct-20 18:33 33.439836 -112.029530 309 1144ft 0kts
22-Oct-20 18:34 33.440857 -112.028352 87 1144ft 31kts
22-Oct-20 18:35 33.440499 -111.982475 92 2358ft 178kts
22-Oct-20 18:36 33.437313 -111.920744 93 4200ft 219kts
22-Oct-20 18:37 33.459584 -111.847823 18 6580ft 288kts
22-Oct-20 18:38 33.541240 -111.842723 1 9140ft 303kts
22-Oct-20 18:39 33.626498 -111.838074 0 12294ft 318kts
22-Oct-20 18:40 33.714083 -111.816608 13 15396ft 327kts
22-Oct-20 18:41 33.800955 -111.783523 26 18217ft 336kts
22-Oct-20 18:42 33.877403 -111.715441 34 20660ft 349kts
22-Oct-20 18:43 33.955513 -111.643349 33 22850ft 360kts
22-Oct-20 18:44 34.037853 -111.572868 28 24850ft 367kts
22-Oct-20 18:45 34.124786 -111.506439 28 26651ft 376kts
22-Oct-20 18:46 34.213876 -111.438106 28 28352ft 382kts
22-Oct-20 18:47 34.303838 -111.368704 28 29874ft 388kts
22-Oct-20 18:48 34.395448 -111.297543 28 31119ft 396kts
22-Oct-20 18:49 34.489008 -111.224838 28 32220ft 404kts
22-Oct-20 18:50 34.584246 -111.150767 28 33221ft 412kts
22-Oct-20 18:51 34.684152 -111.080177 24 34130ft 416kts
22-Oct-20 18:52 34.786646 -111.013197 24 34928ft 423kts
22-Oct-20 18:53 34.891063 -110.944605 24 35640ft 429kts
22-Oct-20 18:54 34.996437 -110.875163 24 36257ft 435kts
22-Oct-20 18:55 35.103122 -110.804617 24 36934ft 438kts
22-Oct-20 18:56 35.210220 -110.733856 24 37591ft 440kts
22-Oct-20 18:57 35.317687 -110.662415 24 38179ft 441kts
22-Oct-20 18:58 35.425486 -110.590501 25 38702ft 442kts
22-Oct-20 18:59 35.533256 -110.518347 25 39082ft 443kts
22-Oct-20 19:00 35.640886 -110.446013 25 39093ft 443kts
22-Oct-20 19:01 35.748841 -110.373084 25 39093ft 443kts
22-Oct-20 19:02 35.856661 -110.299478 26 39093ft 443kts
22-Oct-20 19:03 35.964131 -110.225993 25 39088ft 443kts
22-Oct-20 19:04 36.071521 -110.152512 25 39079ft 443kts
22-Oct-20 19:05 36.179276 -110.078812 25 39040ft 443kts
22-Oct-20 19:06 36.286806 -110.004904 25 39032ft 444kts
22-Oct-20 19:07 36.394400 -109.930633 25 39031ft 444kts
22-Oct-20 19:08 36.502320 -109.855866 25 39031ft 445kts
22-Oct-20 19:09 36.610974 -109.780357 25 39031ft 446kts
22-Oct-20 19:10 36.718815 -109.705163 25 39092ft 446kts
22-Oct-20 19:11 36.827113 -109.629411 25 39110ft 447kts
22-Oct-20 19:12 36.935310 -109.553476 25 39112ft 448kts
22-Oct-20 19:13 37.043523 -109.476240 30 39108ft 451kts
22-Oct-20 19:14 37.143978 -109.381658 33 39112ft 453kts
22-Oct-20 19:15 37.244453 -109.285910 33 39122ft 454kts
22-Oct-20 19:16 37.344675 -109.190399 33 39136ft 454kts
22-Oct-20 19:17 37.445173 -109.094498 33 39133ft 454kts
22-Oct-20 19:18 37.545592 -108.998372 33 39121ft 455kts
22-Oct-20 19:19 37.646339 -108.901588 33 39109ft 456kts
22-Oct-20 19:20 37.747051 -108.804498 33 39105ft 457kts
22-Oct-20 19:21 37.848100 -108.706726 33 39108ft 458kts
22-Oct-20 19:22 37.948911 -108.608854 33 39123ft 459kts
22-Oct-20 19:23 38.050185 -108.510130 33 39129ft 461kts
22-Oct-20 19:24 38.151590 -108.411242 33 39130ft 462kts
22-Oct-20 19:25 38.253164 -108.311608 34 38525ft 455kts
22-Oct-20 19:26 38.351840 -108.214099 34 36361ft 448kts
22-Oct-20 19:27 38.450367 -108.116728 34 33888ft 448kts
22-Oct-20 19:28 38.546632 -108.021151 34 32090ft 433kts
22-Oct-20 19:30 38.640252 -107.927989 34 30242ft 422kts
22-Oct-20 19:31 38.731209 -107.837130 34 28528ft 410kts
22-Oct-20 19:32 38.819636 -107.748534 33 26993ft 400kts
22-Oct-20 19:33 38.906565 -107.661162 33 25475ft 392kts
22-Oct-20 19:34 38.991208 -107.575818 33 24061ft 383kts
22-Oct-20 19:35 39.073648 -107.492457 33 22690ft 373kts
22-Oct-20 19:36 39.153074 -107.408862 47 21272ft 371kts
22-Oct-20 19:37 39.182474 -107.281517 79 19780ft 372kts
22-Oct-20 19:38 39.203050 -107.152602 78 18337ft 360kts
22-Oct-20 19:39 39.223306 -107.029019 78 17151ft 344kts
22-Oct-20 19:40 39.260341 -106.920338 18 17120ft 330kts
22-Oct-20 19:41 39.347862 -106.907287 0 17112ft 319kts
22-Oct-20 19:42 39.432352 -106.896798 341 16975ft 275kts
22-Oct-20 19:43 39.505921 -106.920669 321 15602ft 262kts
22-Oct-20 19:44 39.507002 -106.991221 212 14196ft 242kts
22-Oct-20 19:45 39.439043 -106.972382 166 13200ft 254kts
22-Oct-20 19:46 39.378688 -106.942840 169 12915ft 216kts
22-Oct-20 19:46 39.331527 -106.920172 166 11628ft 220kts
22-Oct-20 19:48 39.266552 -106.890161 132 8653ft 217kts
22-Oct-20 19:48 39.226585 -106.870494 159 7843ft 152kts
22-Oct-20 19:50 39.215765 -106.864167 339 7842ft 14kts
22-Oct-20 19:50 39.218940 -106.864931 71 7842ft 7kts
22-Oct-20 19:51 39.219026 -106.864519 70 7842ft 0kts
22-Oct-20 19:52 39.219026 -106.864519 70 7842ft 0kts
22-Oct-20 19:53 39.219026 -106.864519 70 7842ft 0kts
22-Oct-20 19:54 39.219026 -106.864519 70 7843ft 0kts

Navigation Log

Ident Type
Flight plan parsing failed, navigation log unavailable